Time;durP1;ratioP1;P1;durP2;ratioP2;P2;SDS_P1;SDS_P2;PMS_P1;PMS_P2;Temp;Humidity;BMP_temperature;BMP_pressure;BME280_temperature;BME280_humidity;BME280_pressure;Samples;Min_cycle;Max_cycle;Signal;HPM_P1;HPM_P2
2021/01/16 00:01:38;;;;;;;49.77;36.00;;;-0.20;99.90;;;;;;6019984;23;20403;-77
2021/01/16 00:04:05;;;;;;;47.13;35.77;;;-0.20;99.90;;;;;;6018809;23;20441;-77
2021/01/16 00:06:32;;;;;;;42.90;31.37;;;-0.20;99.90;;;;;;6019310;23;20420;-77
2021/01/16 00:08:59;;;;;;;32.77;28.83;;;-0.30;99.90;;;;;;6018746;23;20480;-77
2021/01/16 00:11:25;;;;;;;35.67;28.37;;;-0.20;99.90;;;;;;6020376;23;20460;-77
2021/01/16 00:13:51;;;;;;;31.20;27.00;;;-0.30;99.90;;;;;;6042999;23;20472;-76
2021/01/16 00:16:19;;;;;;;29.77;26.33;;;-0.30;99.90;;;;;;6019773;23;20397;-77
2021/01/16 00:18:45;;;;;;;29.53;25.87;;;-0.20;99.90;;;;;;6017656;23;20768;-77
2021/01/16 00:21:11;;;;;;;30.47;26.80;;;-0.20;99.90;;;;;;6039518;23;20423;-77
2021/01/16 00:23:38;;;;;;;29.13;25.83;;;-0.30;99.90;;;;;;6015574;23;20496;-77
2021/01/16 00:26:04;;;;;;;29.53;26.00;;;-0.30;99.90;;;;;;6020221;23;20397;-77
2021/01/16 00:28:32;;;;;;;29.83;26.57;;;-0.30;99.90;;;;;;6015907;23;20416;-77
2021/01/16 00:30:59;;;;;;;29.40;24.87;;;-0.30;99.90;;;;;;6019099;23;20440;-77
2021/01/16 00:33:28;;;;;;;30.17;26.93;;;-0.30;99.90;;;;;;6019413;23;20468;-77
2021/01/16 00:35:56;;;;;;;32.70;26.13;;;-0.30;99.90;;;;;;6043309;23;20421;-77
2021/01/16 00:38:23;;;;;;;30.70;25.40;;;-0.30;99.90;;;;;;6018460;23;20401;-77
2021/01/16 00:40:50;;;;;;;28.20;25.17;;;-0.30;99.90;;;;;;6041507;23;20409;-76
2021/01/16 00:43:17;;;;;;;29.97;25.57;;;-0.30;99.90;;;;;;6018201;23;20433;-75
2021/01/16 00:45:45;;;;;;;33.13;26.37;;;-0.30;99.90;;;;;;6017796;23;20892;-77
2021/01/16 00:48:12;;;;;;;29.33;26.20;;;-0.30;99.90;;;;;;6018896;23;20959;-75
2021/01/16 00:50:41;;;;;;;28.03;24.10;;;-0.30;99.90;;;;;;6020168;23;20424;-76
2021/01/16 00:53:08;;;;;;;32.50;26.47;;;-0.30;99.90;;;;;;6019736;23;20440;-77
2021/01/16 00:55:44;;;;;;;29.13;26.07;;;-0.40;99.90;;;;;;6016265;23;20913;-76
2021/01/16 00:58:12;;;;;;;29.93;26.43;;;-0.30;99.90;;;;;;6013196;23;20427;-77
2021/01/16 01:00:41;;;;;;;28.33;25.30;;;-0.30;99.90;;;;;;6013337;23;20472;-77
2021/01/16 01:03:08;;;;;;;28.17;25.20;;;-0.30;99.90;;;;;;6013554;23;20447;-76
2021/01/16 01:05:35;;;;;;;32.47;25.67;;;-0.30;99.90;;;;;;6013823;23;20421;-77
2021/01/16 01:08:02;;;;;;;32.87;26.40;;;-0.30;99.90;;;;;;6013594;23;20393;-77
2021/01/16 01:10:32;;;;;;;31.03;26.60;;;-0.30;99.90;;;;;;6012250;23;20448;-76
2021/01/16 01:12:59;;;;;;;30.13;26.17;;;-0.40;99.90;;;;;;6035834;23;20448;-76
2021/01/16 01:15:25;;;;;;;29.87;26.20;;;-0.40;99.90;;;;;;6036639;23;20424;-77
2021/01/16 01:17:53;;;;;;;29.37;25.70;;;-0.40;99.90;;;;;;6012676;23;20416;-77
2021/01/16 01:20:19;;;;;;;28.70;25.67;;;-0.40;99.90;;;;;;6012607;23;20424;-77
2021/01/16 01:22:47;;;;;;;31.50;27.00;;;-0.40;99.90;;;;;;6019521;23;20532;-76
2021/01/16 01:25:14;;;;;;;33.70;27.80;;;-0.40;99.90;;;;;;6020081;23;20427;-76
2021/01/16 01:27:41;;;;;;;32.07;28.23;;;-0.40;99.90;;;;;;6043326;23;20427;-77
2021/01/16 01:30:08;;;;;;;32.97;27.03;;;-0.40;99.90;;;;;;6021218;23;20401;-76
2021/01/16 01:32:34;;;;;;;29.47;25.90;;;-0.40;99.90;;;;;;6018754;23;20460;-76
2021/01/16 01:35:01;;;;;;;32.43;27.10;;;-0.40;99.90;;;;;;6043030;23;20446;-76
2021/01/16 01:37:28;;;;;;;35.67;27.47;;;-0.40;99.90;;;;;;6020170;23;20394;-76
2021/01/16 01:39:54;;;;;;;31.33;26.23;;;-0.30;99.90;;;;;;6021276;23;20400;-75
2021/01/16 01:42:22;;;;;;;28.93;25.67;;;-0.40;99.90;;;;;;6021012;23;20413;-76
2021/01/16 01:44:48;;;;;;;30.80;27.17;;;-0.30;99.90;;;;;;6020123;23;20504;-76
2021/01/16 01:47:16;;;;;;;33.50;26.10;;;-0.30;99.90;;;;;;6014005;23;20420;-77
2021/01/16 01:49:43;;;;;;;28.33;25.43;;;-0.30;99.90;;;;;;6037277;23;20413;-77
2021/01/16 01:52:10;;;;;;;29.87;25.60;;;-0.40;99.90;;;;;;6015337;23;20433;-77
2021/01/16 01:54:37;;;;;;;30.83;25.83;;;-0.40;99.90;;;;;;6015148;23;20394;-77
2021/01/16 01:57:06;;;;;;;32.43;27.20;;;-0.40;99.90;;;;;;6014991;23;20748;-77
2021/01/16 01:59:35;;;;;;;30.87;26.10;;;-0.40;99.90;;;;;;6013720;23;20417;-77
2021/01/16 02:02:02;;;;;;;28.47;24.90;;;-0.40;99.90;;;;;;6013418;23;20444;-77
2021/01/16 02:04:31;;;;;;;27.17;23.53;;;-0.40;99.90;;;;;;6014816;23;20419;-76
2021/01/16 02:06:58;;;;;;;29.07;25.97;;;-0.50;99.90;;;;;;6013817;23;20817;-77
2021/01/16 02:09:25;;;;;;;26.90;24.00;;;-0.50;99.90;;;;;;6015226;23;20452;-76
2021/01/16 02:11:53;;;;;;;31.03;26.10;;;-0.50;99.90;;;;;;6014792;23;20440;-76
2021/01/16 02:14:25;;;;;;;32.93;26.67;;;-0.50;99.90;;;;;;6013808;23;20423;-76
2021/01/16 02:16:56;;;;;;;26.53;23.77;;;-0.50;99.90;;;;;;6014246;23;20428;-77
2021/01/16 02:19:39;;;;;;;26.77;24.17;;;-0.50;99.90;;;;;;6014605;23;20388;-76
2021/01/16 02:22:06;;;;;;;25.63;23.10;;;-0.50;99.90;;;;;;6014362;23;20412;-77
2021/01/16 02:24:40;;;;;;;27.73;24.83;;;-0.50;99.90;;;;;;6014277;23;20417;-77
2021/01/16 02:27:28;;;;;;;29.23;26.03;;;-0.50;99.90;;;;;;6015303;23;20389;-77
2021/01/16 02:29:55;;;;;;;28.37;25.40;;;-0.50;99.90;;;;;;6014075;23;20468;-77
2021/01/16 02:32:23;;;;;;;29.63;26.40;;;-0.50;99.90;;;;;;6014382;23;20508;-77
2021/01/16 02:34:52;;;;;;;29.63;26.60;;;-0.50;99.90;;;;;;6014627;23;20448;-77
2021/01/16 02:37:40;;;;;;;29.60;26.60;;;-0.50;99.90;;;;;;6013820;23;20900;-77
2021/01/16 02:40:15;;;;;;;30.17;26.63;;;-0.50;99.90;;;;;;6014094;23;20416;-77
2021/01/16 02:43:01;;;;;;;31.40;28.00;;;-0.50;99.90;;;;;;6014179;23;20443;-76
2021/01/16 02:45:32;;;;;;;31.57;27.43;;;-0.50;99.90;;;;;;6013699;23;20413;-77
2021/01/16 02:48:15;;;;;;;31.17;25.27;;;-0.50;99.90;;;;;;6014508;23;20417;-77
2021/01/16 02:50:44;;;;;;;28.90;25.97;;;-0.50;99.90;;;;;;6013447;23;20424;-77
2021/01/16 02:53:12;;;;;;;29.53;26.33;;;-0.40;99.90;;;;;;6014166;23;20437;-77
2021/01/16 02:55:40;;;;;;;30.70;27.40;;;-0.40;99.90;;;;;;6015317;23;20393;-76
2021/01/16 02:58:07;;;;;;;29.57;26.07;;;-0.40;99.90;;;;;;6015207;23;20425;-75
2021/01/16 03:00:33;;;;;;;29.53;25.93;;;-0.40;99.90;;;;;;6015205;23;20397;-77
2021/01/16 03:02:59;;;;;;;31.57;25.63;;;-0.50;99.90;;;;;;6013861;23;20429;-77
2021/01/16 03:05:26;;;;;;;27.70;24.80;;;-0.50;99.90;;;;;;6016018;23;20393;-77
2021/01/16 03:07:55;;;;;;;29.47;25.93;;;-0.50;99.90;;;;;;6014004;23;20412;-77
2021/01/16 03:10:25;;;;;;;30.83;26.87;;;-0.50;99.90;;;;;;6013426;23;20421;-76
2021/01/16 03:12:52;;;;;;;29.47;26.23;;;-0.40;99.90;;;;;;6013748;23;20448;-76
2021/01/16 03:15:20;;;;;;;31.23;27.70;;;-0.50;99.90;;;;;;6013797;23;20420;-77
2021/01/16 03:17:49;;;;;;;31.03;26.43;;;-0.50;99.90;;;;;;6013153;23;20795;-77
2021/01/16 03:20:20;;;;;;;27.97;24.97;;;-0.40;99.90;;;;;;6014721;23;20430;-77
2021/01/16 03:22:49;;;;;;;29.90;26.23;;;-0.40;99.90;;;;;;6037442;23;20444;-77
2021/01/16 03:25:17;;;;;;;29.20;25.77;;;-0.40;99.90;;;;;;6014026;23;20885;-77
2021/01/16 03:27:44;;;;;;;29.13;26.03;;;-0.40;99.90;;;;;;6013649;23;20428;-77
2021/01/16 03:30:11;;;;;;;30.70;26.97;;;-0.50;99.90;;;;;;6012714;23;20907;-77
2021/01/16 03:32:39;;;;;;;28.60;25.80;;;-0.50;99.90;;;;;;6013245;23;20456;-77
2021/01/16 03:35:06;;;;;;;31.23;26.93;;;-0.50;99.90;;;;;;6013367;23;20469;-77
2021/01/16 03:37:32;;;;;;;29.37;26.27;;;-0.50;99.90;;;;;;6013643;23;20409;-77
2021/01/16 03:39:59;;;;;;;29.87;26.70;;;-0.50;99.90;;;;;;6037087;23;20424;-77
2021/01/16 03:42:25;;;;;;;28.17;25.17;;;-0.50;99.90;;;;;;6014193;23;20435;-77
2021/01/16 03:44:51;;;;;;;29.03;26.13;;;-0.50;99.90;;;;;;6014981;23;20390;-78
2021/01/16 03:47:18;;;;;;;28.53;25.53;;;-0.50;99.90;;;;;;6013837;23;20429;-77
2021/01/16 03:49:45;;;;;;;28.53;25.43;;;-0.50;99.90;;;;;;6007700;23;20824;-77
2021/01/16 03:52:27;;;;;;;29.00;25.30;;;-0.50;99.90;;;;;;6011891;23;20459;-77
2021/01/16 03:54:53;;;;;;;31.80;26.00;;;-0.50;99.90;;;;;;6014660;23;20716;-77
2021/01/16 03:57:20;;;;;;;27.87;25.00;;;-0.50;99.90;;;;;;6006609;23;20487;-77
2021/01/16 03:59:47;;;;;;;31.27;27.37;;;-0.50;99.90;;;;;;6014396;23;20393;-77
2021/01/16 04:02:13;;;;;;;29.47;26.27;;;-0.50;99.90;;;;;;6013299;23;20416;-77
2021/01/16 04:04:39;;;;;;;28.43;25.30;;;-0.50;99.90;;;;;;6012099;23;20420;-78
2021/01/16 04:07:07;;;;;;;30.13;26.93;;;-0.50;99.90;;;;;;6032509;23;20734;-76
2021/01/16 04:09:34;;;;;;;27.93;25.03;;;-0.50;99.90;;;;;;6014927;23;20744;-76
2021/01/16 04:12:00;;;;;;;29.87;25.50;;;-0.40;99.90;;;;;;6007950;23;20958;-76
2021/01/16 04:14:26;;;;;;;27.33;24.60;;;-0.50;99.90;;;;;;6009193;23;20448;-76
2021/01/16 04:16:52;;;;;;;31.47;26.23;;;-0.50;99.90;;;;;;6010273;23;20424;-77
2021/01/16 04:19:20;;;;;;;32.97;27.53;;;-0.50;99.90;;;;;;6013203;23;20500;-76
2021/01/16 04:21:46;;;;;;;32.23;26.60;;;-0.50;99.90;;;;;;6013040;23;20388;-77
2021/01/16 04:24:14;;;;;;;32.17;27.17;;;-0.50;99.90;;;;;;6012907;23;20421;-76
2021/01/16 04:26:41;;;;;;;29.30;26.00;;;-0.40;99.90;;;;;;6012440;23;20450;-76
2021/01/16 04:29:07;;;;;;;27.80;24.83;;;-0.50;99.90;;;;;;6010395;23;20428;-76
2021/01/16 04:31:34;;;;;;;29.30;26.20;;;-0.50;99.90;;;;;;6011380;23;20444;-76
2021/01/16 04:34:06;;;;;;;28.50;25.50;;;-0.50;99.90;;;;;;6034439;23;20444;-76
2021/01/16 04:36:32;;;;;;;27.93;25.00;;;-0.40;99.90;;;;;;6012140;23;20397;-76
2021/01/16 04:38:58;;;;;;;28.30;25.40;;;-0.40;99.90;;;;;;6008271;23;20485;-76
2021/01/16 04:41:27;;;;;;;26.83;24.13;;;-0.40;99.90;;;;;;6009786;23;20436;-75
2021/01/16 04:43:54;;;;;;;26.87;24.17;;;-0.50;99.90;;;;;;6010887;23;20439;-76
2021/01/16 04:46:22;;;;;;;31.97;26.67;;;-0.50;99.90;;;;;;6011286;23;20905;-76
2021/01/16 04:48:59;;;;;;;31.60;27.33;;;-0.50;99.90;;;;;;6009749;23;20413;-77
2021/01/16 04:51:31;;;;;;;27.63;24.70;;;-0.50;99.90;;;;;;6036180;23;20437;-77
2021/01/16 04:54:00;;;;;;;28.93;25.50;;;-0.50;99.90;;;;;;6012713;23;20874;-77
2021/01/16 04:56:28;;;;;;;27.80;24.90;;;-0.50;99.90;;;;;;6013312;23;20432;-76
2021/01/16 04:58:55;;;;;;;29.83;25.20;;;-0.50;99.90;;;;;;6012154;23;20412;-77
2021/01/16 05:01:22;;;;;;;27.30;24.63;;;-0.50;99.90;;;;;;6014960;23;20393;-75
2021/01/16 05:03:51;;;;;;;30.03;26.57;;;-0.50;99.90;;;;;;6015782;23;20440;-76
2021/01/16 05:06:19;;;;;;;30.07;24.90;;;-0.50;99.90;;;;;;6015314;23;20533;-76
2021/01/16 05:08:46;;;;;;;28.77;25.73;;;-0.50;99.90;;;;;;6011557;23;20453;-76
2021/01/16 05:11:17;;;;;;;29.73;24.63;;;-0.40;99.90;;;;;;6014796;23;20443;-77
2021/01/16 05:13:46;;;;;;;29.43;24.77;;;-0.40;99.90;;;;;;6045834;23;20498;-75
2021/01/16 05:16:14;;;;;;;29.33;25.40;;;-0.40;99.90;;;;;;6065627;23;20479;-75
2021/01/16 05:18:42;;;;;;;27.80;24.43;;;-0.30;99.90;;;;;;6066915;23;20396;-74
2021/01/16 05:21:10;;;;;;;28.47;25.47;;;-0.30;99.90;;;;;;6067561;23;20396;-75
2021/01/16 05:23:42;;;;;;;29.50;25.63;;;-0.30;99.90;;;;;;6067164;23;20418;-75
2021/01/16 05:26:09;;;;;;;31.77;25.83;;;-0.40;99.90;;;;;;6067326;23;20383;-75
2021/01/16 05:28:35;;;;;;;28.37;25.33;;;-0.40;99.90;;;;;;6066727;23;20394;-74
2021/01/16 05:31:04;;;;;;;27.87;24.87;;;-0.40;99.90;;;;;;6065553;23;20502;-75
2021/01/16 05:33:32;;;;;;;31.23;26.13;;;-0.40;99.90;;;;;;6065470;23;20442;-75
2021/01/16 05:36:00;;;;;;;30.93;26.57;;;-0.40;99.90;;;;;;6067225;23;20897;-74
2021/01/16 05:38:28;;;;;;;26.90;24.10;;;-0.50;99.90;;;;;;6066539;23;20391;-75
2021/01/16 05:40:56;;;;;;;29.57;25.73;;;-0.40;99.90;;;;;;6066856;23;20399;-74
2021/01/16 05:43:23;;;;;;;28.23;23.83;;;-0.40;99.90;;;;;;6065263;23;20922;-74
2021/01/16 05:45:57;;;;;;;30.37;25.30;;;-0.40;99.90;;;;;;6066461;23;20396;-74
2021/01/16 05:48:25;;;;;;;28.90;25.80;;;-0.40;99.90;;;;;;6066400;23;20386;-74
2021/01/16 05:50:54;;;;;;;26.53;23.77;;;-0.40;99.90;;;;;;6067396;23;20395;-75
2021/01/16 05:53:22;;;;;;;27.77;24.80;;;-0.40;99.90;;;;;;6066916;23;20494;-75
2021/01/16 05:55:48;;;;;;;28.43;24.30;;;-0.40;99.90;;;;;;6066814;23;20395;-75
2021/01/16 05:58:17;;;;;;;26.83;23.97;;;-0.40;99.90;;;;;;6064682;23;20423;-75
2021/01/16 06:00:49;;;;;;;27.33;24.57;;;-0.40;99.90;;;;;;6065149;23;20482;-75
2021/01/16 06:03:17;;;;;;;26.53;23.73;;;-0.40;99.90;;;;;;6067192;23;20442;-75
2021/01/16 06:05:49;;;;;;;30.07;25.60;;;-0.40;99.90;;;;;;6068092;23;20398;-76
2021/01/16 06:08:15;;;;;;;29.17;24.13;;;-0.50;99.90;;;;;;6066293;23;20439;-75
2021/01/16 06:10:43;;;;;;;28.40;25.20;;;-0.40;99.90;;;;;;6065079;23;20407;-75
2021/01/16 06:13:16;;;;;;;27.23;24.47;;;-0.50;99.90;;;;;;6066218;23;20934;-75
2021/01/16 06:15:44;;;;;;;27.30;23.83;;;-0.40;99.90;;;;;;6066557;23;20391;-75
2021/01/16 06:18:28;;;;;;;28.77;25.77;;;-0.50;99.90;;;;;;6066299;23;20455;-74
2021/01/16 06:20:56;;;;;;;27.60;24.67;;;-0.50;99.90;;;;;;6064947;23;20470;-75
2021/01/16 06:23:23;;;;;;;25.97;23.17;;;-0.50;99.90;;;;;;6066062;23;20415;-75
2021/01/16 06:25:52;;;;;;;28.10;25.10;;;-0.50;99.90;;;;;;6066351;23;20391;-74
2021/01/16 06:28:21;;;;;;;28.30;25.27;;;-0.50;99.90;;;;;;6065849;23;20395;-74
2021/01/16 06:30:52;;;;;;;26.60;23.90;;;-0.50;99.90;;;;;;6066458;23;20379;-74
2021/01/16 06:33:23;;;;;;;28.07;25.13;;;-0.50;99.90;;;;;;6066122;23;20446;-74
2021/01/16 06:35:57;;;;;;;27.80;24.97;;;-0.50;99.90;;;;;;6065733;23;20902;-74
2021/01/16 06:38:33;;;;;;;27.07;24.37;;;-0.40;99.90;;;;;;6064481;23;20415;-75
2021/01/16 06:41:14;;;;;;;29.77;26.57;;;-0.50;99.90;;;;;;6067810;23;20379;-75
2021/01/16 06:43:42;;;;;;;27.67;24.87;;;-0.50;99.90;;;;;;6067266;23;20985;-76
2021/01/16 06:46:09;;;;;;;27.90;25.10;;;-0.40;99.90;;;;;;6064619;23;20763;-74
2021/01/16 06:48:39;;;;;;;26.23;22.90;;;-0.40;99.90;;;;;;6066352;23;20430;-76
2021/01/16 06:51:09;;;;;;;31.13;25.67;;;-0.40;99.90;;;;;;6066760;23;20398;-75
2021/01/16 06:53:35;;;;;;;26.33;23.63;;;-0.50;99.90;;;;;;6065999;23;20914;-77
2021/01/16 06:56:06;;;;;;;26.97;24.00;;;-0.50;99.90;;;;;;6065962;23;20913;-75
2021/01/16 06:58:38;;;;;;;26.57;23.77;;;-0.50;99.90;;;;;;6064621;23;20411;-76
2021/01/16 07:01:06;;;;;;;27.17;24.17;;;-0.50;99.90;;;;;;6065827;23;20910;-76
2021/01/16 07:03:39;;;;;;;29.07;25.97;;;-0.60;99.90;;;;;;6064295;23;20439;-76
2021/01/16 07:06:07;;;;;;;29.13;26.10;;;-0.60;99.90;;;;;;6065956;23;20463;-76
2021/01/16 07:08:34;;;;;;;28.57;25.57;;;-0.60;99.90;;;;;;6065832;23;20478;-76
2021/01/16 07:11:01;;;;;;;26.83;24.10;;;-0.60;99.90;;;;;;6064300;23;20509;-76
2021/01/16 07:13:32;;;;;;;26.50;23.77;;;-0.50;99.90;;;;;;6065477;23;20456;-76
2021/01/16 07:16:00;;;;;;;27.00;24.03;;;-0.50;99.90;;;;;;6066024;23;20414;-76
2021/01/16 07:18:28;;;;;;;26.57;23.67;;;-0.60;99.90;;;;;;6065969;23;20776;-76
2021/01/16 07:20:57;;;;;;;27.97;23.83;;;-0.60;99.90;;;;;;6066300;23;20391;-76
2021/01/16 07:23:26;;;;;;;27.80;24.80;;;-0.60;99.90;;;;;;6065783;23;20407;-76
2021/01/16 07:25:53;;;;;;;26.70;23.90;;;-0.50;99.90;;;;;;6065354;23;20755;-76
2021/01/16 07:28:21;;;;;;;26.07;23.43;;;-0.40;99.90;;;;;;6065487;23;20399;-76
2021/01/16 07:30:49;;;;;;;25.90;23.30;;;-0.50;99.90;;;;;;6065004;23;20558;-76
2021/01/16 07:33:15;;;;;;;27.10;24.27;;;-0.40;99.90;;;;;;6066179;23;20529;-76
2021/01/16 07:35:48;;;;;;;26.07;23.40;;;-0.40;99.90;;;;;;6066021;23;20398;-76
2021/01/16 07:38:15;;;;;;;27.70;24.83;;;-0.30;99.90;;;;;;6088586;23;20494;-76
2021/01/16 07:40:45;;;;;;;26.60;23.73;;;-0.30;99.90;;;;;;6068171;23;20474;-76
2021/01/16 07:43:33;;;;;;;25.07;22.63;;;-0.30;99.90;;;;;;6066464;23;20940;-76
2021/01/16 07:46:00;;;;;;;27.13;23.93;;;-0.30;99.90;;;;;;6066464;23;20422;-77
2021/01/16 07:48:32;;;;;;;27.83;24.83;;;-0.30;99.90;;;;;;6068137;23;20489;-78
2021/01/16 07:51:00;;;;;;;37.87;26.37;;;-0.30;99.90;;;;;;6066554;23;20815;-75
2021/01/16 07:53:28;;;;;;;31.43;25.30;;;-0.30;99.90;;;;;;6068806;23;20443;-76
2021/01/16 07:56:04;;;;;;;30.07;26.93;;;-0.30;99.90;;;;;;6068771;23;20387;-76
2021/01/16 07:58:36;;;;;;;47.60;35.90;;;-0.30;99.90;;;;;;6068973;23;20403;-78
2021/01/16 08:01:09;;;;;;;52.77;37.73;;;-0.30;99.90;;;;;;6092814;23;20411;-77
2021/01/16 08:03:59;;;;;;;43.00;34.20;;;-0.30;99.90;;;;;;6066404;23;20450;-74
2021/01/16 08:06:34;;;;;;;41.20;31.30;;;-0.30;99.90;;;;;;6066076;23;21009;-74
2021/01/16 08:09:04;;;;;;;38.93;29.40;;;-0.20;99.90;;;;;;6067592;23;20475;-75
2021/01/16 08:11:33;;;;;;;30.73;27.40;;;-0.20;99.90;;;;;;6067335;23;20422;-75
2021/01/16 08:14:01;;;;;;;30.67;27.13;;;-0.20;99.90;;;;;;6065948;23;20945;-74
2021/01/16 08:16:28;;;;;;;31.13;26.57;;;-0.20;99.90;;;;;;6066088;23;20419;-75
2021/01/16 08:19:13;;;;;;;30.93;26.07;;;-0.10;99.90;;;;;;6067212;23;20391;-74
2021/01/16 08:21:52;;;;;;;29.80;26.37;;;-0.10;99.90;;;;;;6067782;23;20851;-74
2021/01/16 08:24:20;;;;;;;33.30;26.57;;;-0.10;99.90;;;;;;6065657;23;20445;-76
2021/01/16 08:26:56;;;;;;;28.33;25.40;;;0.00;99.90;;;;;;6065885;23;20450;-74
2021/01/16 08:29:23;;;;;;;28.47;25.47;;;0.00;99.90;;;;;;6067179;23;20442;-74
2021/01/16 08:32:01;;;;;;;31.00;26.20;;;0.10;99.90;;;;;;6067699;23;20802;-76
2021/01/16 08:34:53;;;;;;;29.90;26.70;;;0.00;99.90;;;;;;6066931;23;20581;-76
2021/01/16 08:37:27;;;;;;;32.33;28.00;;;0.10;99.90;;;;;;6040743;23;20410;-76
2021/01/16 08:39:54;;;;;;;29.07;25.90;;;0.20;99.90;;;;;;6071682;23;20407;-76
2021/01/16 08:42:25;;;;;;;35.00;27.37;;;0.30;99.90;;;;;;6072199;23;20716;-76
2021/01/16 08:44:53;;;;;;;29.80;25.47;;;0.40;99.90;;;;;;6070330;23;20419;-76
2021/01/16 08:47:20;;;;;;;29.67;25.83;;;0.40;99.90;;;;;;6071411;23;20909;-76
2021/01/16 08:49:46;;;;;;;26.07;23.40;;;0.40;99.90;;;;;;6069561;23;20430;-76
2021/01/16 08:52:13;;;;;;;27.40;24.27;;;0.50;99.90;;;;;;6071774;23;21067;-76
2021/01/16 08:54:58;;;;;;;27.27;24.40;;;0.60;99.90;;;;;;6071811;23;20470;-76
2021/01/16 08:57:30;;;;;;;27.73;24.03;;;0.60;99.90;;;;;;6071720;23;20384;-76
2021/01/16 08:59:57;;;;;;;28.33;25.37;;;0.70;99.90;;;;;;6070431;23;20411;-76
2021/01/16 09:02:23;;;;;;;26.43;23.73;;;0.70;99.90;;;;;;6071357;23;20447;-76
2021/01/16 09:04:50;;;;;;;28.37;25.00;;;0.70;99.90;;;;;;6070177;23;20396;-76
2021/01/16 09:07:18;;;;;;;27.90;24.13;;;0.80;99.90;;;;;;6068445;23;20451;-76
2021/01/16 09:09:54;;;;;;;34.37;26.40;;;0.80;99.90;;;;;;6067835;23;20395;-75
2021/01/16 09:12:30;;;;;;;31.67;25.53;;;0.90;99.90;;;;;;6066417;23;20450;-76
2021/01/16 09:15:18;;;;;;;39.17;28.67;;;0.90;99.90;;;;;;6067385;23;20387;-75
2021/01/16 09:18:03;;;;;;;58.87;33.73;;;1.00;99.90;;;;;;6067592;23;20389;-79
2021/01/16 09:20:31;;;;;;;48.50;30.93;;;1.10;99.90;;;;;;6089047;23;20415;-75
2021/01/16 09:22:57;;;;;;;32.57;26.77;;;1.10;99.90;;;;;;6065304;23;20985;-76
2021/01/16 09:25:25;;;;;;;31.00;24.83;;;1.20;99.90;;;;;;6066871;23;20407;-75
2021/01/16 09:27:53;;;;;;;28.67;23.40;;;1.20;99.90;;;;;;6067358;23;20482;-75
2021/01/16 09:30:21;;;;;;;25.03;22.47;;;1.20;99.90;;;;;;6066685;23;20396;-75
2021/01/16 09:32:48;;;;;;;24.10;21.60;;;1.30;99.90;;;;;;6065138;23;20456;-76
2021/01/16 09:35:34;;;;;;;23.80;21.27;;;1.30;99.90;;;;;;6065271;23;20419;-75
2021/01/16 09:38:01;;;;;;;23.77;21.27;;;1.40;99.90;;;;;;6066905;23;20379;-75
2021/01/16 09:40:35;;;;;;;24.80;22.10;;;1.40;99.90;;;;;;6066650;23;20393;-76
2021/01/16 09:43:14;;;;;;;24.17;21.70;;;1.40;99.90;;;;;;6067185;23;20493;-76
2021/01/16 09:45:50;;;;;;;23.63;21.10;;;1.40;99.90;;;;;;6066872;23;20708;-76
2021/01/16 09:48:40;;;;;;;25.13;22.43;;;1.40;99.90;;;;;;6065135;23;20504;-74
2021/01/16 09:51:07;;;;;;;24.90;22.23;;;1.50;99.90;;;;;;6066730;23;20453;-74
2021/01/16 09:53:33;;;;;;;26.10;23.33;;;1.50;99.90;;;;;;6066640;23;20450;-74
2021/01/16 09:56:00;;;;;;;26.07;23.27;;;1.50;99.90;;;;;;6066629;23;20445;-75
2021/01/16 09:58:35;;;;;;;25.40;22.83;;;1.50;99.90;;;;;;6066588;23;20407;-76
2021/01/16 10:01:18;;;;;;;24.20;21.70;;;1.50;99.90;;;;;;6065242;23;20441;-75
2021/01/16 10:03:46;;;;;;;22.37;20.27;;;1.60;99.90;;;;;;6065147;23;20922;-76
2021/01/16 10:06:17;;;;;;;23.70;20.63;;;1.70;99.90;;;;;;6067386;23;20394;-77
2021/01/16 10:08:44;;;;;;;21.73;19.53;;;1.70;99.90;;;;;;6068895;23;20703;-77
2021/01/16 10:11:12;;;;;;;23.07;20.73;;;1.70;99.90;;;;;;6069366;23;20393;-77
2021/01/16 10:13:40;;;;;;;22.90;20.47;;;1.60;99.90;;;;;;6068582;23;20439;-77
2021/01/16 10:16:08;;;;;;;22.07;19.73;;;1.70;99.90;;;;;;6068220;23;20415;-77
2021/01/16 10:18:35;;;;;;;23.20;20.70;;;1.70;99.90;;;;;;6067790;23;20411;-77
2021/01/16 10:21:06;;;;;;;22.07;19.90;;;1.70;99.90;;;;;;6068461;23;20426;-77
2021/01/16 10:23:35;;;;;;;22.23;20.13;;;1.70;99.90;;;;;;6067223;23;20446;-78
2021/01/16 10:26:04;;;;;;;22.97;20.70;;;1.80;99.90;;;;;;6068255;23;20391;-78
2021/01/16 10:28:32;;;;;;;22.23;20.03;;;1.80;99.90;;;;;;6068197;23;20450;-77
2021/01/16 10:31:01;;;;;;;21.17;19.07;;;1.90;99.90;;;;;;6069191;23;20392;-77
2021/01/16 10:33:41;;;;;;;22.73;20.43;;;1.90;99.90;;;;;;6067688;23;21007;-76
2021/01/16 10:36:12;;;;;;;22.80;20.50;;;2.00;99.90;;;;;;6088608;23;20882;-76
2021/01/16 10:38:48;;;;;;;21.30;19.20;;;2.10;99.90;;;;;;6063805;23;20412;-76
2021/01/16 10:41:16;;;;;;;20.60;18.57;;;2.20;99.90;;;;;;6065429;23;20400;-76
2021/01/16 10:43:44;;;;;;;21.57;19.37;;;2.30;99.90;;;;;;6065631;23;20466;-76
2021/01/16 10:46:14;;;;;;;21.30;19.27;;;2.40;99.90;;;;;;6066325;23;20950;-76
2021/01/16 10:48:41;;;;;;;20.73;18.67;;;2.40;99.90;;;;;;6068534;23;20421;-76
2021/01/16 10:51:09;;;;;;;20.13;18.20;;;2.40;99.90;;;;;;6065678;23;20894;-76
2021/01/16 10:53:37;;;;;;;20.23;18.23;;;2.40;99.90;;;;;;6064399;23;20463;-76
2021/01/16 10:56:14;;;;;;;20.63;18.57;;;2.40;99.90;;;;;;6066131;23;20536;-76
2021/01/16 10:58:41;;;;;;;21.00;18.90;;;2.40;99.90;;;;;;6088875;23;20402;-76
2021/01/16 11:01:09;;;;;;;20.53;18.53;;;2.20;99.90;;;;;;6066326;23;20395;-75
2021/01/16 11:03:37;;;;;;;21.63;19.50;;;2.10;99.90;;;;;;6065037;23;20855;-76
2021/01/16 11:06:05;;;;;;;21.50;19.33;;;1.90;99.90;;;;;;6066915;23;20400;-76
2021/01/16 11:08:32;;;;;;;23.20;20.43;;;1.90;99.90;;;;;;6064383;23;20766;-76
2021/01/16 11:11:00;;;;;;;20.97;18.87;;;1.70;99.90;;;;;;6068400;23;20592;-77
2021/01/16 11:13:28;;;;;;;20.90;18.83;;;1.80;99.90;;;;;;6068319;23;20457;-75
2021/01/16 11:15:56;;;;;;;20.77;18.80;;;1.80;99.90;;;;;;6068771;23;20406;-74
2021/01/16 11:18:32;;;;;;;19.57;17.67;;;1.80;99.90;;;;;;6066881;23;20437;-74
2021/01/16 11:21:06;;;;;;;21.00;18.90;;;1.80;99.90;;;;;;6067680;23;20425;-74
2021/01/16 11:24:03;;;;;;;19.97;18.10;;;1.70;99.90;;;;;;6068809;23;20896;-74
2021/01/16 11:26:45;;;;;;;18.87;17.13;;;1.70;99.90;;;;;;6069000;23;20389;-74
2021/01/16 11:29:16;;;;;;;18.37;16.63;;;1.70;99.90;;;;;;6069093;23;20467;-74
2021/01/16 11:31:48;;;;;;;18.57;16.80;;;1.70;99.90;;;;;;6068557;23;20391;-74
2021/01/16 11:34:21;;;;;;;17.90;16.20;;;1.80;99.90;;;;;;6068840;23;20407;-74
2021/01/16 11:37:06;;;;;;;17.13;15.63;;;1.80;99.90;;;;;;6069356;23;20710;-74
2021/01/16 11:39:47;;;;;;;17.13;15.43;;;1.80;99.90;;;;;;6069191;23;20833;-73
2021/01/16 11:42:15;;;;;;;16.97;15.40;;;1.70;99.90;;;;;;6067263;23;20863;-74
2021/01/16 11:44:53;;;;;;;16.87;15.30;;;1.70;99.90;;;;;;6067558;23;20533;-74
2021/01/16 11:47:19;;;;;;;17.00;15.40;;;1.80;99.90;;;;;;6069091;23;20386;-74
2021/01/16 11:49:46;;;;;;;17.33;15.70;;;1.70;99.90;;;;;;6068933;23;20476;-74
2021/01/16 11:52:14;;;;;;;17.53;15.53;;;1.80;99.90;;;;;;6067699;23;20782;-74
2021/01/16 11:54:41;;;;;;;17.50;16.00;;;1.80;99.90;;;;;;6067332;23;20443;-74
2021/01/16 11:57:09;;;;;;;18.13;16.43;;;1.80;99.90;;;;;;6067512;23;20430;-74
2021/01/16 11:59:36;;;;;;;17.37;15.67;;;1.80;99.90;;;;;;6068833;23;20423;-75
2021/01/16 12:02:04;;;;;;;17.87;16.27;;;1.90;99.90;;;;;;6069110;23;20499;-75
2021/01/16 12:04:31;;;;;;;20.37;18.23;;;1.90;99.90;;;;;;6069516;23;20414;-75
2021/01/16 12:07:01;;;;;;;18.93;17.13;;;1.80;99.90;;;;;;6069448;23;20526;-76
2021/01/16 12:09:29;;;;;;;18.70;16.90;;;1.80;99.90;;;;;;6070776;23;20483;-76
2021/01/16 12:11:58;;;;;;;20.13;17.87;;;1.70;99.90;;;;;;6068882;23;20933;-75
2021/01/16 12:14:35;;;;;;;18.60;16.80;;;1.70;99.90;;;;;;6067516;23;20938;-74
2021/01/16 12:17:05;;;;;;;19.77;17.80;;;1.60;99.90;;;;;;6067495;23;20501;-74
2021/01/16 12:19:33;;;;;;;18.53;16.77;;;1.50;99.90;;;;;;6068712;23;20380;-74
2021/01/16 12:22:03;;;;;;;19.20;17.43;;;1.60;99.90;;;;;;6091579;23;20450;-74
2021/01/16 12:24:31;;;;;;;19.27;17.27;;;1.60;99.90;;;;;;6066484;23;21022;-74
2021/01/16 12:26:59;;;;;;;19.67;17.87;;;1.60;99.90;;;;;;6075444;23;20479;-76
2021/01/16 12:29:37;;;;;;;18.50;16.60;;;1.60;99.90;;;;;;6066423;23;20415;-74
2021/01/16 12:32:05;;;;;;;16.90;15.40;;;1.50;99.90;;;;;;6065553;23;20432;-74
2021/01/16 12:34:31;;;;;;;17.13;15.53;;;1.40;99.90;;;;;;6065522;23;20435;-74
2021/01/16 12:36:58;;;;;;;16.80;15.30;;;1.40;99.90;;;;;;6066043;23;20426;-73
2021/01/16 12:39:25;;;;;;;16.33;14.83;;;1.40;99.90;;;;;;6065621;23;20412;-74
2021/01/16 12:41:57;;;;;;;16.77;15.27;;;1.40;99.90;;;;;;6067623;23;20406;-74
2021/01/16 12:44:24;;;;;;;17.50;15.87;;;1.40;99.90;;;;;;6067285;23;20506;-76